createdAt,value
2018-12-26T00:01:49.383Z,0.30
2018-12-26T00:04:18.177Z,0.30
2018-12-26T00:06:46.953Z,0.20
2018-12-26T00:09:15.737Z,0.20
2018-12-26T00:11:44.451Z,0.20
2018-12-26T00:14:13.162Z,0.20
2018-12-26T00:16:41.876Z,0.10
2018-12-26T00:19:10.697Z,0.10
2018-12-26T00:21:39.452Z,0.10
2018-12-26T00:24:08.251Z,0.10
2018-12-26T00:26:37.063Z,0.10
2018-12-26T00:29:05.854Z,0.10
2018-12-26T00:31:34.568Z,0.10
2018-12-26T00:34:03.268Z,0.10
2018-12-26T00:36:31.973Z,0.00
2018-12-26T00:39:00.685Z,0.10
2018-12-26T00:41:29.430Z,0.10
2018-12-26T00:43:58.119Z,0.10
2018-12-26T00:46:26.838Z,0.10
2018-12-26T00:48:55.529Z,0.10
2018-12-26T00:51:24.279Z,0.10
2018-12-26T00:53:52.968Z,0.10
2018-12-26T00:56:21.689Z,0.10
2018-12-26T00:58:50.387Z,0.10
2018-12-26T01:01:19.089Z,0.10
2018-12-26T01:03:47.883Z,0.00
2018-12-26T01:06:16.857Z,0.10
2018-12-26T01:08:45.619Z,0.00
2018-12-26T01:11:14.717Z,0.00
2018-12-26T01:13:43.492Z,0.00
2018-12-26T01:16:12.293Z,0.00
2018-12-26T01:18:41.013Z,0.00
2018-12-26T01:21:09.733Z,-0.10
2018-12-26T01:23:38.457Z,-0.10
2018-12-26T01:26:07.156Z,-0.10
2018-12-26T01:28:35.948Z,-0.10
2018-12-26T01:31:04.655Z,-0.10
2018-12-26T01:33:33.378Z,-0.10
2018-12-26T01:36:02.143Z,-0.10
2018-12-26T01:38:30.866Z,-0.10
2018-12-26T01:40:59.566Z,-0.10
2018-12-26T01:43:28.297Z,-0.20
2018-12-26T01:45:57.026Z,-0.20
2018-12-26T01:48:25.741Z,-0.20
2018-12-26T01:50:54.446Z,-0.20
2018-12-26T01:53:23.173Z,-0.20
2018-12-26T01:55:51.868Z,-0.20
2018-12-26T01:58:20.607Z,-0.20
2018-12-26T02:00:49.346Z,-0.20
2018-12-26T02:03:18.061Z,-0.20
2018-12-26T02:05:46.832Z,-0.30
2018-12-26T02:08:15.549Z,-0.30
2018-12-26T02:10:44.361Z,-0.30
2018-12-26T02:13:13.065Z,-0.30
2018-12-26T02:15:41.801Z,-0.30
2018-12-26T02:18:10.671Z,-0.30
2018-12-26T02:20:39.465Z,-0.40
2018-12-26T02:23:08.234Z,-0.40
2018-12-26T02:25:36.952Z,-0.40
2018-12-26T02:28:05.648Z,-0.40
2018-12-26T02:30:34.484Z,-0.50
2018-12-26T02:33:03.257Z,-0.40
2018-12-26T02:35:31.973Z,-0.50
2018-12-26T02:38:00.688Z,-0.50
2018-12-26T02:40:29.410Z,-0.40
2018-12-26T02:42:58.119Z,-0.50
2018-12-26T02:45:26.836Z,-0.50
2018-12-26T02:47:55.538Z,-0.50
2018-12-26T02:50:24.257Z,-0.50
2018-12-26T02:52:53.034Z,-0.50
2018-12-26T02:55:21.736Z,-0.50
2018-12-26T02:57:50.465Z,-0.50
2018-12-26T03:00:19.254Z,-0.50
2018-12-26T03:02:47.952Z,-0.50
2018-12-26T03:05:16.665Z,-0.50
2018-12-26T03:07:45.360Z,-0.50
2018-12-26T03:10:14.060Z,-0.50
2018-12-26T03:12:42.780Z,-0.50
2018-12-26T03:15:11.472Z,-0.50
2018-12-26T03:17:40.356Z,-0.50
2018-12-26T03:20:09.112Z,-0.50
2018-12-26T03:22:37.841Z,-0.50
2018-12-26T03:25:06.672Z,-0.50
2018-12-26T03:27:35.401Z,-0.50
2018-12-26T03:30:06.346Z,-0.50
2018-12-26T03:32:35.271Z,-0.50
2018-12-26T03:35:04.497Z,-0.50
2018-12-26T03:37:33.294Z,-0.50
2018-12-26T03:40:02.069Z,-0.50
2018-12-26T03:42:30.948Z,-0.50
2018-12-26T03:45:01.289Z,-0.50
2018-12-26T03:47:30.655Z,-0.50
2018-12-26T03:49:59.364Z,-0.50
2018-12-26T03:52:28.301Z,-0.50
2018-12-26T03:54:56.998Z,-0.50
2018-12-26T03:57:25.834Z,-0.50
2018-12-26T03:59:54.737Z,-0.40
2018-12-26T04:02:23.589Z,-0.40
2018-12-26T04:04:52.377Z,-0.40
2018-12-26T04:07:21.083Z,-0.40
2018-12-26T04:09:49.969Z,-0.40
2018-12-26T04:12:18.906Z,-0.40
2018-12-26T04:14:47.701Z,-0.40
2018-12-26T04:17:16.396Z,-0.40
2018-12-26T04:19:45.457Z,-0.40
2018-12-26T04:22:14.330Z,-0.40
2018-12-26T04:24:43.213Z,-0.50
2018-12-26T04:27:15.545Z,-0.40
2018-12-26T04:29:42.349Z,-0.40
2018-12-26T04:32:11.045Z,-0.40
2018-12-26T04:34:39.945Z,-0.40
2018-12-26T04:37:08.651Z,-0.40
2018-12-26T04:39:37.346Z,-0.40
2018-12-26T04:42:06.065Z,-0.40
2018-12-26T04:44:34.791Z,-0.40
2018-12-26T04:47:03.489Z,-0.40
2018-12-26T04:49:32.231Z,-0.40
2018-12-26T04:52:00.926Z,-0.40
2018-12-26T04:54:29.625Z,-0.40
2018-12-26T04:56:58.358Z,-0.40
2018-12-26T04:59:27.058Z,-0.40
2018-12-26T05:01:55.781Z,-0.30
2018-12-26T05:04:24.556Z,-0.30
2018-12-26T05:06:53.311Z,-0.30
2018-12-26T05:09:22.079Z,-0.20
2018-12-26T05:11:50.933Z,-0.10
2018-12-26T05:14:19.636Z,0.00
2018-12-26T05:16:48.354Z,0.10
2018-12-26T05:19:17.065Z,0.20
2018-12-26T05:21:45.833Z,0.30
2018-12-26T05:24:14.587Z,0.50
2018-12-26T05:26:43.321Z,0.60
2018-12-26T05:29:12.172Z,0.70
2018-12-26T05:31:40.925Z,0.80
2018-12-26T05:34:09.622Z,0.90
2018-12-26T05:36:38.367Z,1.00
2018-12-26T05:39:07.193Z,1.00
2018-12-26T05:41:35.880Z,1.10
2018-12-26T05:44:04.660Z,1.20
2018-12-26T05:46:33.356Z,1.20
2018-12-26T05:49:02.073Z,1.30
2018-12-26T05:51:30.758Z,1.40
2018-12-26T05:53:59.473Z,1.40
2018-12-26T05:56:28.173Z,1.40
2018-12-26T05:58:56.900Z,1.50
2018-12-26T06:01:25.596Z,1.50
2018-12-26T06:03:54.304Z,1.50
2018-12-26T06:06:22.997Z,1.50
2018-12-26T06:08:51.717Z,1.60
2018-12-26T06:11:20.509Z,1.60
2018-12-26T06:13:49.228Z,1.60
2018-12-26T06:16:17.954Z,1.60
2018-12-26T06:18:46.716Z,1.60
2018-12-26T06:21:15.404Z,1.60
2018-12-26T06:23:44.121Z,1.60
2018-12-26T06:26:12.810Z,1.60
2018-12-26T06:28:41.552Z,1.60
2018-12-26T06:31:10.234Z,1.50
2018-12-26T06:33:38.967Z,1.40
2018-12-26T06:36:07.674Z,1.30
2018-12-26T06:38:36.375Z,1.20
2018-12-26T06:41:05.105Z,1.10
2018-12-26T06:43:33.797Z,0.90
2018-12-26T06:46:02.522Z,0.90
2018-12-26T06:48:31.212Z,0.80
2018-12-26T06:50:59.929Z,0.70
2018-12-26T06:53:28.623Z,0.60
2018-12-26T06:55:57.328Z,0.60
2018-12-26T06:58:26.016Z,0.50
2018-12-26T07:00:54.729Z,0.50
2018-12-26T07:03:23.420Z,0.40
2018-12-26T07:05:52.141Z,0.40
2018-12-26T07:08:20.831Z,0.40
2018-12-26T07:10:49.521Z,0.40
2018-12-26T07:13:18.233Z,0.40
2018-12-26T07:15:46.948Z,0.40
2018-12-26T07:18:15.669Z,0.30
2018-12-26T07:20:44.365Z,0.30
2018-12-26T07:23:13.109Z,0.30
2018-12-26T07:25:41.792Z,0.30
2018-12-26T07:28:10.513Z,0.30
2018-12-26T07:30:39.229Z,0.30
2018-12-26T07:33:07.948Z,0.40
2018-12-26T07:35:36.660Z,0.40
2018-12-26T07:38:05.373Z,0.50
2018-12-26T07:40:34.067Z,0.60
2018-12-26T07:43:02.834Z,0.70
2018-12-26T07:45:31.576Z,0.80
2018-12-26T07:48:00.290Z,0.80
2018-12-26T07:50:28.985Z,0.80
2018-12-26T07:52:57.703Z,0.80
2018-12-26T07:55:26.397Z,0.80
2018-12-26T07:57:55.127Z,0.80
2018-12-26T08:00:23.827Z,0.80
2018-12-26T08:02:52.662Z,0.80
2018-12-26T08:05:21.381Z,0.80
2018-12-26T08:07:50.061Z,0.90
2018-12-26T08:10:18.771Z,0.90
2018-12-26T08:12:47.465Z,0.90
2018-12-26T08:15:16.201Z,0.90
2018-12-26T08:17:44.937Z,0.90
2018-12-26T08:20:13.635Z,0.90
2018-12-26T08:22:42.325Z,1.00
2018-12-26T08:25:11.117Z,1.10
2018-12-26T08:27:39.961Z,1.30
2018-12-26T08:30:08.792Z,1.40
2018-12-26T08:32:37.574Z,1.60
2018-12-26T08:35:06.318Z,1.80
2018-12-26T08:37:35.073Z,1.90
2018-12-26T08:40:05.224Z,2.00
2018-12-26T08:42:33.939Z,2.10
2018-12-26T08:45:02.670Z,2.20
2018-12-26T08:47:31.373Z,2.20
2018-12-26T08:50:00.156Z,2.30
2018-12-26T08:52:28.881Z,2.40
2018-12-26T08:54:57.602Z,2.50
2018-12-26T08:57:26.297Z,2.50
2018-12-26T08:59:55.093Z,2.60
2018-12-26T09:02:23.803Z,2.60
2018-12-26T09:04:52.497Z,2.70
2018-12-26T09:07:21.217Z,2.80
2018-12-26T09:09:50.078Z,2.80
2018-12-26T09:12:18.796Z,2.90
2018-12-26T09:14:47.488Z,3.00
2018-12-26T09:17:16.226Z,3.10
2018-12-26T09:19:44.978Z,3.20
2018-12-26T09:22:13.692Z,3.30
2018-12-26T09:24:42.415Z,3.30
2018-12-26T09:27:11.135Z,3.30
2018-12-26T09:29:39.848Z,3.30
2018-12-26T09:32:08.678Z,3.30
2018-12-26T09:34:37.377Z,3.30
2018-12-26T09:37:06.113Z,3.30
2018-12-26T09:39:34.817Z,3.30
2018-12-26T09:42:03.549Z,3.30
2018-12-26T09:44:32.230Z,3.30
2018-12-26T09:47:00.950Z,3.30
2018-12-26T09:49:29.646Z,3.30
2018-12-26T09:51:58.372Z,3.30
2018-12-26T09:54:27.065Z,3.30
2018-12-26T09:56:55.971Z,3.30
2018-12-26T09:59:24.674Z,3.40
2018-12-26T10:01:54.455Z,3.50
2018-12-26T10:04:23.258Z,3.60
2018-12-26T10:06:51.970Z,3.70
2018-12-26T10:09:20.769Z,3.80
2018-12-26T10:11:49.590Z,3.90
2018-12-26T10:14:18.338Z,3.90
2018-12-26T10:16:47.078Z,4.00
2018-12-26T10:19:15.817Z,4.00
2018-12-26T10:21:44.532Z,4.10
2018-12-26T10:24:13.285Z,4.20
2018-12-26T10:26:41.985Z,4.30
2018-12-26T10:29:10.686Z,4.30
2018-12-26T10:31:39.418Z,4.30
2018-12-26T10:34:08.131Z,4.40
2018-12-26T10:36:36.833Z,4.40
2018-12-26T10:39:06.008Z,4.50
2018-12-26T10:41:34.711Z,4.50
2018-12-26T10:44:03.425Z,4.50
2018-12-26T10:46:32.125Z,4.50
2018-12-26T10:49:00.874Z,4.40
2018-12-26T10:51:29.562Z,4.40
2018-12-26T10:53:58.285Z,4.40
2018-12-26T10:56:26.977Z,4.40
2018-12-26T10:58:55.746Z,4.50
2018-12-26T11:01:24.486Z,4.60
2018-12-26T11:03:53.187Z,4.70
2018-12-26T11:06:21.906Z,4.90
2018-12-26T11:08:50.745Z,5.00
2018-12-26T11:11:19.459Z,5.10
2018-12-26T11:13:48.151Z,5.20
2018-12-26T11:16:17.017Z,5.30
2018-12-26T11:18:46.664Z,5.30
2018-12-26T11:21:15.387Z,5.30
2018-12-26T11:23:44.087Z,5.30
2018-12-26T11:26:12.869Z,5.30
2018-12-26T11:28:41.742Z,5.30
2018-12-26T11:31:10.460Z,5.30
2018-12-26T11:33:39.146Z,5.20
2018-12-26T11:36:07.875Z,5.20
2018-12-26T11:38:36.758Z,5.20
2018-12-26T11:41:05.588Z,5.20
2018-12-26T11:43:34.301Z,5.20
2018-12-26T11:46:03.072Z,5.30
2018-12-26T11:48:31.805Z,5.30
2018-12-26T11:51:00.503Z,5.30
2018-12-26T11:53:29.222Z,5.40
2018-12-26T11:55:57.910Z,5.40
2018-12-26T11:58:26.613Z,5.40
2018-12-26T12:00:55.314Z,5.50
2018-12-26T12:03:24.101Z,5.60
2018-12-26T12:05:52.964Z,5.70
2018-12-26T12:08:21.678Z,5.70
2018-12-26T12:10:50.370Z,5.80
2018-12-26T12:13:19.219Z,5.90
2018-12-26T12:15:48.001Z,5.90
2018-12-26T12:18:16.713Z,5.90
2018-12-26T12:20:45.410Z,5.90
2018-12-26T12:23:14.205Z,6.00
2018-12-26T12:25:42.906Z,6.00
2018-12-26T12:28:11.642Z,6.10
2018-12-26T12:30:40.413Z,6.10
2018-12-26T12:33:09.197Z,6.10
2018-12-26T12:35:37.899Z,6.10
2018-12-26T12:38:06.680Z,6.10
2018-12-26T12:40:35.459Z,6.10
2018-12-26T12:43:04.243Z,6.10
2018-12-26T12:45:33.212Z,6.20
2018-12-26T12:48:02.023Z,6.20
2018-12-26T12:50:31.008Z,6.20
2018-12-26T12:52:59.794Z,6.20
2018-12-26T12:55:28.667Z,6.20
2018-12-26T12:57:57.364Z,6.20
2018-12-26T13:00:26.173Z,6.20
2018-12-26T13:03:00.401Z,6.20
2018-12-26T13:05:25.790Z,6.20
2018-12-26T13:07:54.476Z,6.10
2018-12-26T13:10:23.199Z,6.10
2018-12-26T13:12:51.961Z,6.10
2018-12-26T13:15:20.781Z,6.10
2018-12-26T13:17:49.554Z,6.10
2018-12-26T13:20:18.289Z,6.10
2018-12-26T13:22:46.990Z,6.10
2018-12-26T13:25:17.252Z,6.10
2018-12-26T13:27:46.102Z,6.10
2018-12-26T13:30:14.811Z,6.10
2018-12-26T13:32:43.874Z,6.10
2018-12-26T13:35:12.611Z,6.10
2018-12-26T13:37:42.671Z,6.10
2018-12-26T13:40:11.480Z,6.10
2018-12-26T13:42:40.247Z,6.00
2018-12-26T13:45:09.095Z,6.10
2018-12-26T13:47:37.876Z,6.10
2018-12-26T13:50:07.378Z,6.10
2018-12-26T13:52:36.206Z,6.00
2018-12-26T13:55:05.275Z,6.00
2018-12-26T13:57:34.000Z,6.00
2018-12-26T14:00:03.477Z,6.10
2018-12-26T14:02:32.258Z,6.10
2018-12-26T14:05:00.973Z,6.10
2018-12-26T14:07:29.770Z,6.10
2018-12-26T14:09:58.455Z,6.10
2018-12-26T14:12:27.270Z,6.10
2018-12-26T14:14:55.965Z,6.00
2018-12-26T14:17:24.765Z,6.00
2018-12-26T14:19:53.536Z,6.00
2018-12-26T14:22:22.314Z,6.00
2018-12-26T14:24:51.013Z,6.00
2018-12-26T14:27:19.736Z,5.90
2018-12-26T14:29:48.446Z,5.90
2018-12-26T14:32:17.154Z,5.80
2018-12-26T14:34:45.846Z,5.80
2018-12-26T14:37:14.536Z,5.70
2018-12-26T14:39:43.251Z,5.70
2018-12-26T14:42:11.954Z,5.60
2018-12-26T14:44:40.685Z,5.60
2018-12-26T14:47:09.398Z,5.50
2018-12-26T14:49:38.251Z,5.40
2018-12-26T14:52:06.949Z,5.40
2018-12-26T14:54:35.671Z,5.30
2018-12-26T14:57:04.383Z,5.30
2018-12-26T14:59:33.170Z,5.30
2018-12-26T15:02:01.893Z,5.20
2018-12-26T15:04:30.579Z,5.20
2018-12-26T15:06:59.325Z,5.20
2018-12-26T15:09:28.056Z,5.20
2018-12-26T15:11:56.743Z,5.10
2018-12-26T15:14:25.767Z,5.00
2018-12-26T15:16:54.482Z,5.00
2018-12-26T15:19:23.197Z,4.90
2018-12-26T15:21:51.885Z,4.80
2018-12-26T15:24:20.613Z,4.80
2018-12-26T15:26:49.309Z,4.70
2018-12-26T15:29:18.041Z,4.60
2018-12-26T15:31:46.764Z,4.50
2018-12-26T15:34:15.485Z,4.40
2018-12-26T15:36:44.336Z,4.40
2018-12-26T15:39:13.034Z,4.30
2018-12-26T15:41:41.763Z,4.30
2018-12-26T15:44:10.452Z,4.20
2018-12-26T15:46:39.235Z,4.10
2018-12-26T15:49:08.005Z,4.00
2018-12-26T15:51:36.714Z,4.00
2018-12-26T15:54:05.568Z,3.90
2018-12-26T15:56:34.306Z,3.90
2018-12-26T15:59:02.999Z,3.80
2018-12-26T16:01:31.729Z,3.80
2018-12-26T16:04:00.520Z,3.70
2018-12-26T16:06:29.224Z,3.70
2018-12-26T16:08:57.940Z,3.60
2018-12-26T16:11:26.668Z,3.60
2018-12-26T16:13:55.361Z,3.60
2018-12-26T16:16:24.073Z,3.50
2018-12-26T16:18:52.775Z,3.40
2018-12-26T16:21:21.506Z,3.40
2018-12-26T16:23:50.302Z,3.40
2018-12-26T16:26:18.990Z,3.30
2018-12-26T16:28:47.708Z,3.30
2018-12-26T16:31:16.421Z,3.30
2018-12-26T16:33:45.141Z,3.30
2018-12-26T16:36:13.834Z,3.20
2018-12-26T16:38:42.550Z,3.30
2018-12-26T16:41:11.245Z,3.20
2018-12-26T16:43:39.973Z,3.20
2018-12-26T16:46:08.665Z,3.20
2018-12-26T16:48:37.376Z,3.20
2018-12-26T16:51:06.155Z,3.20
2018-12-26T16:53:34.905Z,3.20
2018-12-26T16:56:03.696Z,3.20
2018-12-26T16:58:33.983Z,3.10
2018-12-26T17:01:02.778Z,3.10
2018-12-26T17:03:31.571Z,3.10
2018-12-26T17:06:00.471Z,3.10
2018-12-26T17:08:29.206Z,3.10
2018-12-26T17:10:57.924Z,3.10
2018-12-26T17:13:29.849Z,3.10
2018-12-26T17:15:58.713Z,3.10
2018-12-26T17:18:27.477Z,3.10
2018-12-26T17:20:56.197Z,3.10
2018-12-26T17:23:24.978Z,3.10
2018-12-26T17:25:53.694Z,3.10
2018-12-26T17:28:22.395Z,3.10
2018-12-26T17:30:51.190Z,3.00
2018-12-26T17:33:19.891Z,3.00
2018-12-26T17:35:48.609Z,3.00
2018-12-26T17:38:17.317Z,3.00
2018-12-26T17:40:46.047Z,3.00
2018-12-26T17:43:14.731Z,3.00
2018-12-26T17:45:43.447Z,3.00
2018-12-26T17:48:12.160Z,2.90
2018-12-26T17:50:46.077Z,2.90
2018-12-26T17:53:24.904Z,2.90
2018-12-26T17:55:56.709Z,2.90
2018-12-26T17:58:28.476Z,2.90
2018-12-26T18:01:12.925Z,2.90
2018-12-26T18:03:41.977Z,2.90
2018-12-26T18:06:10.782Z,2.90
2018-12-26T18:08:39.504Z,2.80
2018-12-26T18:11:08.217Z,2.80
2018-12-26T18:13:36.940Z,2.80
2018-12-26T18:16:05.655Z,2.80
2018-12-26T18:18:34.459Z,2.70
2018-12-26T18:21:03.141Z,2.70
2018-12-26T18:23:32.026Z,2.70
2018-12-26T18:26:00.717Z,2.60
2018-12-26T18:28:29.454Z,2.60
2018-12-26T18:30:58.284Z,2.60
2018-12-26T18:33:27.069Z,2.50
2018-12-26T18:35:55.846Z,2.50
2018-12-26T18:38:24.608Z,2.50
2018-12-26T18:40:53.296Z,2.50
2018-12-26T18:43:22.015Z,2.50
2018-12-26T18:45:50.721Z,2.40
2018-12-26T18:48:19.509Z,2.40
2018-12-26T18:50:48.232Z,2.40
2018-12-26T18:53:16.970Z,2.40
2018-12-26T18:55:45.675Z,2.30
2018-12-26T18:58:14.393Z,2.30
2018-12-26T19:00:43.091Z,2.30
2018-12-26T19:03:11.858Z,2.30
2018-12-26T19:05:40.554Z,2.30
2018-12-26T19:08:09.607Z,2.20
2018-12-26T19:10:38.457Z,2.20
2018-12-26T19:13:07.188Z,2.20
2018-12-26T19:15:35.990Z,2.20
2018-12-26T19:18:04.689Z,2.20
2018-12-26T19:20:33.424Z,2.20
2018-12-26T19:23:07.005Z,2.10
2018-12-26T19:25:37.144Z,2.10
2018-12-26T19:28:05.885Z,2.10
2018-12-26T19:30:34.613Z,2.10
2018-12-26T19:33:03.314Z,2.10
2018-12-26T19:35:34.289Z,2.10
2018-12-26T19:38:05.781Z,2.10
2018-12-26T19:40:34.497Z,2.10
2018-12-26T19:43:03.188Z,2.10
2018-12-26T19:45:31.918Z,2.10
2018-12-26T19:48:00.692Z,2.10
2018-12-26T19:50:29.441Z,2.10
2018-12-26T19:52:58.126Z,2.10
2018-12-26T19:55:26.905Z,2.00
2018-12-26T19:57:55.618Z,2.00
2018-12-26T20:00:27.198Z,2.00
2018-12-26T20:02:55.933Z,2.00
2018-12-26T20:05:24.618Z,2.00
2018-12-26T20:07:53.345Z,2.00
2018-12-26T20:10:25.134Z,2.00
2018-12-26T20:12:53.870Z,2.00
2018-12-26T20:15:24.131Z,2.10
2018-12-26T20:17:52.918Z,2.10
2018-12-26T20:20:21.605Z,2.10
2018-12-26T20:22:50.338Z,2.10
2018-12-26T20:25:19.132Z,2.20
2018-12-26T20:27:47.851Z,2.20
2018-12-26T20:30:16.572Z,2.20
2018-12-26T20:32:45.269Z,2.20
2018-12-26T20:35:14.004Z,2.30
2018-12-26T20:37:42.698Z,2.30
2018-12-26T20:40:11.422Z,2.30
2018-12-26T20:42:40.113Z,2.30
2018-12-26T20:45:11.870Z,2.30
2018-12-26T20:47:47.073Z,2.40
2018-12-26T20:50:15.780Z,2.30
2018-12-26T20:52:44.474Z,2.30
2018-12-26T20:55:13.200Z,2.30
2018-12-26T20:57:41.906Z,2.30
2018-12-26T21:00:10.613Z,2.30
2018-12-26T21:02:39.405Z,2.30
2018-12-26T21:05:08.426Z,2.30
2018-12-26T21:07:37.123Z,2.30
2018-12-26T21:10:07.318Z,2.30
2018-12-26T21:12:36.019Z,2.30
2018-12-26T21:15:05.585Z,2.30
2018-12-26T21:17:34.284Z,2.40
2018-12-26T21:20:04.553Z,2.40
2018-12-26T21:22:33.321Z,2.40
2018-12-26T21:25:02.114Z,2.40
2018-12-26T21:27:30.917Z,2.40
2018-12-26T21:29:59.718Z,2.50
2018-12-26T21:32:28.567Z,2.40
2018-12-26T21:34:57.283Z,2.40
2018-12-26T21:37:26.074Z,2.40
2018-12-26T21:39:54.796Z,2.40
2018-12-26T21:42:23.509Z,2.40
2018-12-26T21:44:52.217Z,2.40
2018-12-26T21:47:20.928Z,2.40
2018-12-26T21:49:49.641Z,2.40
2018-12-26T21:52:18.367Z,2.40
2018-12-26T21:54:47.061Z,2.40
2018-12-26T21:57:15.795Z,2.50
2018-12-26T21:59:44.557Z,2.50
2018-12-26T22:02:13.318Z,2.50
2018-12-26T22:04:42.010Z,2.50
2018-12-26T22:07:10.711Z,2.60
2018-12-26T22:09:39.513Z,2.60
2018-12-26T22:12:08.331Z,2.60
2018-12-26T22:14:37.114Z,2.70
2018-12-26T22:17:05.838Z,2.70
2018-12-26T22:19:34.552Z,2.80
2018-12-26T22:22:03.269Z,2.80
2018-12-26T22:24:31.993Z,2.80
2018-12-26T22:27:00.685Z,2.80
2018-12-26T22:29:29.437Z,2.80
2018-12-26T22:31:58.146Z,2.90
2018-12-26T22:34:26.872Z,2.90
2018-12-26T22:36:55.631Z,2.90
2018-12-26T22:39:24.412Z,3.00
2018-12-26T22:41:53.133Z,3.00
2018-12-26T22:44:27.754Z,3.00
2018-12-26T22:46:52.409Z,3.10
2018-12-26T22:49:21.248Z,3.10
2018-12-26T22:51:50.286Z,3.10
2018-12-26T22:54:19.074Z,3.10
2018-12-26T22:56:47.857Z,3.10
2018-12-26T22:59:16.790Z,3.10
2018-12-26T23:01:47.595Z,3.10
2018-12-26T23:04:16.486Z,3.10
2018-12-26T23:06:45.270Z,3.10
2018-12-26T23:09:13.985Z,3.10
2018-12-26T23:11:42.705Z,3.10
2018-12-26T23:14:11.399Z,3.10
2018-12-26T23:16:40.136Z,3.10
2018-12-26T23:19:08.885Z,3.10
2018-12-26T23:21:37.621Z,3.00
2018-12-26T23:24:06.328Z,3.00
2018-12-26T23:26:35.033Z,3.10
2018-12-26T23:29:03.814Z,3.00
2018-12-26T23:31:32.541Z,3.00
2018-12-26T23:34:01.275Z,3.10
2018-12-26T23:36:29.978Z,3.00
2018-12-26T23:38:58.780Z,3.00
2018-12-26T23:41:27.518Z,3.00
2018-12-26T23:43:56.252Z,3.00
2018-12-26T23:46:25.017Z,3.00
2018-12-26T23:48:53.736Z,3.00
2018-12-26T23:51:22.441Z,3.00
2018-12-26T23:53:51.160Z,3.00
2018-12-26T23:56:19.857Z,3.00
2018-12-26T23:58:48.564Z,2.90
